sensor_id;sensor_type;location;lat;lon;timestamp;pressure;altitude;pressure_sealevel;temperature;humidity
30967;BME280;17649;51.836;8.330;2023-03-20T00:00:52;101235.81;;;10.47;nan
30967;BME280;17649;51.836;8.330;2023-03-20T00:03:53;101231.94;;;10.36;nan
30967;BME280;17649;51.836;8.330;2023-03-20T00:06:53;101235.56;;;10.32;nan
30967;BME280;17649;51.836;8.330;2023-03-20T00:09:53;101233.00;;;10.32;nan
30967;BME280;17649;51.836;8.330;2023-03-20T00:12:56;101239.78;;;10.35;nan
30967;BME280;17649;51.836;8.330;2023-03-20T00:15:56;101243.44;;;10.50;nan
30967;BME280;17649;51.836;8.330;2023-03-20T00:18:57;101241.19;;;10.61;nan
30967;BME280;17649;51.836;8.330;2023-03-20T00:21:57;101244.06;;;10.73;nan
30967;BME280;17649;51.836;8.330;2023-03-20T00:24:58;101242.03;;;10.80;nan
30967;BME280;17649;51.836;8.330;2023-03-20T00:27:58;101248.63;;;10.87;nan
30967;BME280;17649;51.836;8.330;2023-03-20T00:30:58;101252.59;;;10.94;nan
30967;BME280;17649;51.836;8.330;2023-03-20T00:34:01;101248.88;;;11.00;nan
30967;BME280;17649;51.836;8.330;2023-03-20T00:37:02;101245.38;;;11.01;nan
30967;BME280;17649;51.836;8.330;2023-03-20T00:40:03;101238.66;;;10.97;nan
30967;BME280;17649;51.836;8.330;2023-03-20T00:43:03;101238.50;;;11.00;nan
30967;BME280;17649;51.836;8.330;2023-03-20T00:46:05;101240.19;;;11.01;nan
30967;BME280;17649;51.836;8.330;2023-03-20T00:49:10;101240.06;;;11.04;nan
30967;BME280;17649;51.836;8.330;2023-03-20T00:52:10;101251.97;;;10.89;nan
30967;BME280;17649;51.836;8.330;2023-03-20T00:55:11;101255.03;;;10.97;nan
30967;BME280;17649;51.836;8.330;2023-03-20T00:58:12;101253.34;;;10.96;nan
30967;BME280;17649;51.836;8.330;2023-03-20T01:01:13;101259.22;;;11.00;nan
30967;BME280;17649;51.836;8.330;2023-03-20T01:04:17;101262.47;;;10.86;nan
30967;BME280;17649;51.836;8.330;2023-03-20T01:07:18;101264.28;;;11.03;nan
30967;BME280;17649;51.836;8.330;2023-03-20T01:10:19;101265.41;;;10.97;nan
30967;BME280;17649;51.836;8.330;2023-03-20T01:13:24;101263.16;;;10.90;nan
30967;BME280;17649;51.836;8.330;2023-03-20T01:16:26;101259.03;;;11.04;nan
30967;BME280;17649;51.836;8.330;2023-03-20T01:19:27;101263.41;;;11.21;nan
30967;BME280;17649;51.836;8.330;2023-03-20T01:22:27;101253.88;;;11.22;nan
30967;BME280;17649;51.836;8.330;2023-03-20T01:25:28;101252.97;;;11.23;nan
30967;BME280;17649;51.836;8.330;2023-03-20T01:28:28;101248.78;;;11.20;nan
30967;BME280;17649;51.836;8.330;2023-03-20T01:31:29;101243.28;;;11.09;nan
30967;BME280;17649;51.836;8.330;2023-03-20T01:34:30;101254.03;;;11.19;nan
30967;BME280;17649;51.836;8.330;2023-03-20T01:37:30;101242.78;;;11.20;nan
30967;BME280;17649;51.836;8.330;2023-03-20T01:43:39;101249.81;;;11.35;nan
30967;BME280;17649;51.836;8.330;2023-03-20T01:46:39;101254.91;;;11.37;nan
30967;BME280;17649;51.836;8.330;2023-03-20T01:50:12;101263.44;;;11.39;nan
30967;BME280;17649;51.836;8.330;2023-03-20T01:53:19;101262.53;;;11.40;nan
30967;BME280;17649;51.836;8.330;2023-03-20T01:56:22;101263.13;;;11.45;nan
30967;BME280;17649;51.836;8.330;2023-03-20T01:59:30;101268.72;;;11.54;nan
30967;BME280;17649;51.836;8.330;2023-03-20T02:02:32;101269.41;;;11.58;nan
30967;BME280;17649;51.836;8.330;2023-03-20T02:05:32;101267.03;;;11.53;nan
30967;BME280;17649;51.836;8.330;2023-03-20T02:08:41;101277.09;;;11.59;nan
30967;BME280;17649;51.836;8.330;2023-03-20T02:11:45;101277.81;;;11.63;nan
30967;BME280;17649;51.836;8.330;2023-03-20T02:14:47;101282.91;;;11.64;nan
30967;BME280;17649;51.836;8.330;2023-03-20T02:17:47;101281.31;;;11.62;nan
30967;BME280;17649;51.836;8.330;2023-03-20T02:27:29;101276.59;;;10.79;nan
30967;BME280;17649;51.836;8.330;2023-03-20T02:47:21;101266.56;;;10.34;nan
30967;BME280;17649;51.836;8.330;2023-03-20T02:54:10;101276.69;;;10.38;nan
30967;BME280;17649;51.836;8.330;2023-03-20T02:57:16;101283.84;;;10.52;nan
30967;BME280;17649;51.836;8.330;2023-03-20T03:00:27;101284.34;;;10.41;nan
30967;BME280;17649;51.836;8.330;2023-03-20T03:03:37;101291.97;;;10.44;nan
30967;BME280;17649;51.836;8.330;2023-03-20T03:06:41;101299.91;;;10.20;nan
30967;BME280;17649;51.836;8.330;2023-03-20T03:09:50;101300.53;;;10.04;nan
30967;BME280;17649;51.836;8.330;2023-03-20T03:12:53;101299.13;;;10.18;nan
30967;BME280;17649;51.836;8.330;2023-03-20T03:15:59;101294.94;;;10.15;nan
30967;BME280;17649;51.836;8.330;2023-03-20T03:19:14;101308.16;;;10.07;nan
30967;BME280;17649;51.836;8.330;2023-03-20T03:22:18;101307.47;;;10.04;nan
30967;BME280;17649;51.836;8.330;2023-03-20T03:25:23;101296.41;;;10.00;nan
30967;BME280;17649;51.836;8.330;2023-03-20T03:28:47;101299.69;;;10.04;nan
30967;BME280;17649;51.836;8.330;2023-03-20T03:31:48;101294.00;;;9.96;nan
30967;BME280;17649;51.836;8.330;2023-03-20T03:34:50;101310.81;;;10.06;nan
30967;BME280;17649;51.836;8.330;2023-03-20T03:38:03;101305.41;;;10.12;nan
30967;BME280;17649;51.836;8.330;2023-03-20T03:48:16;101302.03;;;9.90;nan
30967;BME280;17649;51.836;8.330;2023-03-20T03:51:23;101309.13;;;9.84;nan
30967;BME280;17649;51.836;8.330;2023-03-20T03:54:33;101312.69;;;9.82;nan
30967;BME280;17649;51.836;8.330;2023-03-20T03:57:43;101294.41;;;9.86;nan
30967;BME280;17649;51.836;8.330;2023-03-20T04:00:46;101284.25;;;9.82;nan
30967;BME280;17649;51.836;8.330;2023-03-20T04:03:51;101281.53;;;9.85;nan
30967;BME280;17649;51.836;8.330;2023-03-20T04:06:52;101282.59;;;9.59;nan
30967;BME280;17649;51.836;8.330;2023-03-20T04:09:53;101282.88;;;9.73;nan
30967;BME280;17649;51.836;8.330;2023-03-20T04:12:54;101277.09;;;9.67;nan
30967;BME280;17649;51.836;8.330;2023-03-20T04:15:54;101271.22;;;9.63;nan
30967;BME280;17649;51.836;8.330;2023-03-20T04:18:54;101261.56;;;9.68;nan
30967;BME280;17649;51.836;8.330;2023-03-20T04:21:55;101261.59;;;9.67;nan
30967;BME280;17649;51.836;8.330;2023-03-20T04:24:55;101250.19;;;9.72;nan
30967;BME280;17649;51.836;8.330;2023-03-20T04:27:57;101258.97;;;9.68;nan
30967;BME280;17649;51.836;8.330;2023-03-20T04:30:59;101269.56;;;9.62;nan
30967;BME280;17649;51.836;8.330;2023-03-20T04:34:00;101266.19;;;9.60;nan
30967;BME280;17649;51.836;8.330;2023-03-20T04:37:01;101252.25;;;9.64;nan
30967;BME280;17649;51.836;8.330;2023-03-20T04:40:04;101255.28;;;9.53;nan
30967;BME280;17649;51.836;8.330;2023-03-20T04:43:05;101245.88;;;9.73;nan
30967;BME280;17649;51.836;8.330;2023-03-20T04:46:05;101248.00;;;9.83;nan
30967;BME280;17649;51.836;8.330;2023-03-20T04:49:07;101247.03;;;9.86;nan
30967;BME280;17649;51.836;8.330;2023-03-20T04:52:08;101242.84;;;9.83;nan
30967;BME280;17649;51.836;8.330;2023-03-20T04:55:09;101248.66;;;9.68;nan
30967;BME280;17649;51.836;8.330;2023-03-20T04:58:10;101244.19;;;9.72;nan
30967;BME280;17649;51.836;8.330;2023-03-20T05:01:10;101248.66;;;9.68;nan
30967;BME280;17649;51.836;8.330;2023-03-20T05:04:11;101242.03;;;9.61;nan
30967;BME280;17649;51.836;8.330;2023-03-20T05:07:11;101254.38;;;9.75;nan
30967;BME280;17649;51.836;8.330;2023-03-20T05:10:12;101252.38;;;9.81;nan
30967;BME280;17649;51.836;8.330;2023-03-20T05:13:12;101254.59;;;9.91;nan
30967;BME280;17649;51.836;8.330;2023-03-20T05:16:12;101257.09;;;9.72;nan
30967;BME280;17649;51.836;8.330;2023-03-20T05:19:12;101256.06;;;9.76;nan
30967;BME280;17649;51.836;8.330;2023-03-20T05:22:13;101261.44;;;9.71;nan
30967;BME280;17649;51.836;8.330;2023-03-20T05:25:13;101271.09;;;9.66;nan
30967;BME280;17649;51.836;8.330;2023-03-20T05:28:13;101276.22;;;9.68;nan
30967;BME280;17649;51.836;8.330;2023-03-20T05:31:15;101271.78;;;9.71;nan
30967;BME280;17649;51.836;8.330;2023-03-20T05:34:15;101275.91;;;9.75;nan
30967;BME280;17649;51.836;8.330;2023-03-20T05:37:15;101284.69;;;9.71;nan
30967;BME280;17649;51.836;8.330;2023-03-20T05:40:16;101272.34;;;9.78;nan
30967;BME280;17649;51.836;8.330;2023-03-20T05:43:18;101282.31;;;9.87;nan
30967;BME280;17649;51.836;8.330;2023-03-20T05:46:18;101279.72;;;9.87;nan
30967;BME280;17649;51.836;8.330;2023-03-20T05:49:19;101277.84;;;9.91;nan
30967;BME280;17649;51.836;8.330;2023-03-20T05:52:19;101290.50;;;9.97;nan
30967;BME280;17649;51.836;8.330;2023-03-20T05:55:19;101281.91;;;9.76;nan
30967;BME280;17649;51.836;8.330;2023-03-20T05:58:20;101274.75;;;9.82;nan
30967;BME280;17649;51.836;8.330;2023-03-20T06:01:20;101265.94;;;9.66;nan
30967;BME280;17649;51.836;8.330;2023-03-20T06:04:21;101265.97;;;9.86;nan
30967;BME280;17649;51.836;8.330;2023-03-20T06:07:21;101258.22;;;9.86;nan
30967;BME280;17649;51.836;8.330;2023-03-20T06:10:21;101259.75;;;9.91;nan
30967;BME280;17649;51.836;8.330;2023-03-20T06:13:22;101271.06;;;9.88;nan
30967;BME280;17649;51.836;8.330;2023-03-20T06:16:22;101281.63;;;9.83;nan
30967;BME280;17649;51.836;8.330;2023-03-20T06:19:23;101286.59;;;9.88;nan
30967;BME280;17649;51.836;8.330;2023-03-20T06:22:23;101273.97;;;9.80;nan
30967;BME280;17649;51.836;8.330;2023-03-20T06:25:23;101281.69;;;9.82;nan
30967;BME280;17649;51.836;8.330;2023-03-20T06:28:24;101284.69;;;9.71;nan
30967;BME280;17649;51.836;8.330;2023-03-20T06:31:24;101275.50;;;9.64;nan
30967;BME280;17649;51.836;8.330;2023-03-20T06:34:25;101269.06;;;9.74;nan
30967;BME280;17649;51.836;8.330;2023-03-20T06:37:27;101270.22;;;9.67;nan
30967;BME280;17649;51.836;8.330;2023-03-20T06:40:27;101277.84;;;9.70;nan
30967;BME280;17649;51.836;8.330;2023-03-20T06:43:29;101275.41;;;9.67;nan
30967;BME280;17649;51.836;8.330;2023-03-20T06:46:30;101285.94;;;9.83;nan
30967;BME280;17649;51.836;8.330;2023-03-20T06:49:30;101281.53;;;9.85;nan
30967;BME280;17649;51.836;8.330;2023-03-20T06:52:30;101283.34;;;9.83;nan
30967;BME280;17649;51.836;8.330;2023-03-20T06:55:31;101280.22;;;9.75;nan
30967;BME280;17649;51.836;8.330;2023-03-20T06:58:31;101294.00;;;9.75;nan
30967;BME280;17649;51.836;8.330;2023-03-20T07:01:32;101296.66;;;9.74;nan
30967;BME280;17649;51.836;8.330;2023-03-20T07:04:32;101303.63;;;9.72;nan
30967;BME280;17649;51.836;8.330;2023-03-20T07:07:32;101300.44;;;9.65;nan
30967;BME280;17649;51.836;8.330;2023-03-20T07:10:34;101302.94;;;9.67;nan
30967;BME280;17649;51.836;8.330;2023-03-20T07:13:35;101307.28;;;9.66;nan
30967;BME280;17649;51.836;8.330;2023-03-20T07:16:35;101308.09;;;9.68;nan
30967;BME280;17649;51.836;8.330;2023-03-20T07:19:36;101315.22;;;9.62;nan
30967;BME280;17649;51.836;8.330;2023-03-20T07:22:39;101312.84;;;9.57;nan
30967;BME280;17649;51.836;8.330;2023-03-20T07:25:41;101323.31;;;9.74;nan
30967;BME280;17649;51.836;8.330;2023-03-20T07:28:41;101313.53;;;9.82;nan
30967;BME280;17649;51.836;8.330;2023-03-20T07:31:41;101309.19;;;9.83;nan
30967;BME280;17649;51.836;8.330;2023-03-20T07:34:42;101326.78;;;9.95;nan
30967;BME280;17649;51.836;8.330;2023-03-20T07:37:42;101324.53;;;9.66;nan
30967;BME280;17649;51.836;8.330;2023-03-20T07:40:43;101333.09;;;9.88;nan
30967;BME280;17649;51.836;8.330;2023-03-20T07:43:44;101336.41;;;9.92;nan
30967;BME280;17649;51.836;8.330;2023-03-20T07:46:45;101326.03;;;10.34;nan
30967;BME280;17649;51.836;8.330;2023-03-20T07:49:48;101318.91;;;10.39;nan
30967;BME280;17649;51.836;8.330;2023-03-20T07:52:49;101322.03;;;10.47;nan
30967;BME280;17649;51.836;8.330;2023-03-20T07:55:50;101321.69;;;10.55;nan
30967;BME280;17649;51.836;8.330;2023-03-20T07:58:50;101334.22;;;10.64;nan
30967;BME280;17649;51.836;8.330;2023-03-20T08:01:51;101327.91;;;10.51;nan
30967;BME280;17649;51.836;8.330;2023-03-20T08:04:51;101326.44;;;10.45;nan
30967;BME280;17649;51.836;8.330;2023-03-20T08:07:52;101338.00;;;10.57;nan
30967;BME280;17649;51.836;8.330;2023-03-20T08:10:52;101343.03;;;10.60;nan
30967;BME280;17649;51.836;8.330;2023-03-20T08:13:53;101338.56;;;10.63;nan
30967;BME280;17649;51.836;8.330;2023-03-20T08:16:57;101342.03;;;10.43;nan
30967;BME280;17649;51.836;8.330;2023-03-20T08:19:58;101327.91;;;10.51;nan
30967;BME280;17649;51.836;8.330;2023-03-20T08:22:58;101339.69;;;10.37;nan
30967;BME280;17649;51.836;8.330;2023-03-20T08:25:59;101345.09;;;10.52;nan
30967;BME280;17649;51.836;8.330;2023-03-20T08:28:59;101342.28;;;10.58;nan
30967;BME280;17649;51.836;8.330;2023-03-20T08:32:00;101336.81;;;11.03;nan
30967;BME280;17649;51.836;8.330;2023-03-20T08:35:00;101341.72;;;11.45;nan
30967;BME280;17649;51.836;8.330;2023-03-20T08:38:01;101336.91;;;11.38;nan
30967;BME280;17649;51.836;8.330;2023-03-20T08:41:02;101340.69;;;11.49;nan
30967;BME280;17649;51.836;8.330;2023-03-20T08:44:02;101340.22;;;11.58;nan
30967;BME280;17649;51.836;8.330;2023-03-20T08:47:02;101332.44;;;11.77;nan
30967;BME280;17649;51.836;8.330;2023-03-20T08:50:05;101340.53;;;11.52;nan
30967;BME280;17649;51.836;8.330;2023-03-20T08:53:06;101329.09;;;11.20;nan
30967;BME280;17649;51.836;8.330;2023-03-20T08:56:07;101339.63;;;11.16;nan
30967;BME280;17649;51.836;8.330;2023-03-20T08:59:08;101347.91;;;10.86;nan
30967;BME280;17649;51.836;8.330;2023-03-20T09:02:12;101347.50;;;10.95;nan
30967;BME280;17649;51.836;8.330;2023-03-20T09:05:12;101331.69;;;11.01;nan
30967;BME280;17649;51.836;8.330;2023-03-20T09:08:13;101337.06;;;10.78;nan
30967;BME280;17649;51.836;8.330;2023-03-20T09:11:14;101344.19;;;10.92;nan
30967;BME280;17649;51.836;8.330;2023-03-20T09:14:14;101345.03;;;10.92;nan
30967;BME280;17649;51.836;8.330;2023-03-20T09:17:15;101336.97;;;10.98;nan
30967;BME280;17649;51.836;8.330;2023-03-20T09:20:15;101340.63;;;10.94;nan
30967;BME280;17649;51.836;8.330;2023-03-20T09:23:16;101340.41;;;10.80;nan
30967;BME280;17649;51.836;8.330;2023-03-20T09:26:17;101336.56;;;11.08;nan
30967;BME280;17649;51.836;8.330;2023-03-20T09:29:18;101343.00;;;11.37;nan
30967;BME280;17649;51.836;8.330;2023-03-20T09:32:18;101339.00;;;11.48;nan
30967;BME280;17649;51.836;8.330;2023-03-20T09:35:18;101344.66;;;11.92;nan
30967;BME280;17649;51.836;8.330;2023-03-20T09:38:19;101346.72;;;12.03;nan
30967;BME280;17649;51.836;8.330;2023-03-20T09:41:22;101330.41;;;11.65;nan
30967;BME280;17649;51.836;8.330;2023-03-20T09:47:53;101344.63;;;11.20;nan
30967;BME280;17649;51.836;8.330;2023-03-20T09:51:12;101343.91;;;11.35;nan
30967;BME280;17649;51.836;8.330;2023-03-20T09:54:27;101340.88;;;11.63;nan
30967;BME280;17649;51.836;8.330;2023-03-20T09:57:36;101343.66;;;11.59;nan
30967;BME280;17649;51.836;8.330;2023-03-20T10:00:39;101351.53;;;11.75;nan
30967;BME280;17649;51.836;8.330;2023-03-20T10:03:48;101344.69;;;11.38;nan
30967;BME280;17649;51.836;8.330;2023-03-20T10:06:50;101347.88;;;11.61;nan
30967;BME280;17649;51.836;8.330;2023-03-20T10:09:51;101342.97;;;11.55;nan
30967;BME280;17649;51.836;8.330;2023-03-20T10:19:22;101331.38;;;11.81;nan
30967;BME280;17649;51.836;8.330;2023-03-20T10:22:46;101337.19;;;11.68;nan
30967;BME280;17649;51.836;8.330;2023-03-20T10:25:53;101329.94;;;11.93;nan
30967;BME280;17649;51.836;8.330;2023-03-20T10:28:58;101333.75;;;11.86;nan
30967;BME280;17649;51.836;8.330;2023-03-20T10:39:55;101322.53;;;11.49;nan
30967;BME280;17649;51.836;8.330;2023-03-20T10:42:55;101321.03;;;11.62;nan
30967;BME280;17649;51.836;8.330;2023-03-20T10:46:16;101321.09;;;12.14;nan
30967;BME280;17649;51.836;8.330;2023-03-20T10:52:32;101311.19;;;12.22;nan
30967;BME280;17649;51.836;8.330;2023-03-20T10:55:37;101308.59;;;12.05;nan
30967;BME280;17649;51.836;8.330;2023-03-20T10:58:41;101311.72;;;12.12;nan
30967;BME280;17649;51.836;8.330;2023-03-20T11:01:47;101306.06;;;12.21;nan
30967;BME280;17649;51.836;8.330;2023-03-20T11:05:36;101283.69;;;12.18;nan
30967;BME280;17649;51.836;8.330;2023-03-20T11:08:45;101286.38;;;11.82;nan
30967;BME280;17649;51.836;8.330;2023-03-20T11:11:50;101285.03;;;12.43;nan
30967;BME280;17649;51.836;8.330;2023-03-20T11:14:58;101278.25;;;12.40;nan
30967;BME280;17649;51.836;8.330;2023-03-20T11:18:04;101267.56;;;12.78;nan
30967;BME280;17649;51.836;8.330;2023-03-20T11:21:09;101274.19;;;12.68;nan
30967;BME280;17649;51.836;8.330;2023-03-20T11:24:41;101258.53;;;12.85;nan
30967;BME280;17649;51.836;8.330;2023-03-20T11:27:43;101267.81;;;12.73;nan
30967;BME280;17649;51.836;8.330;2023-03-20T11:30:49;101265.59;;;12.99;nan
30967;BME280;17649;51.836;8.330;2023-03-20T11:34:23;101266.19;;;13.20;nan
30967;BME280;17649;51.836;8.330;2023-03-20T11:37:28;101270.34;;;12.91;nan
30967;BME280;17649;51.836;8.330;2023-03-20T11:40:34;101262.06;;;12.84;nan
30967;BME280;17649;51.836;8.330;2023-03-20T11:43:37;101252.81;;;12.94;nan
30967;BME280;17649;51.836;8.330;2023-03-20T11:46:38;101248.63;;;12.92;nan
30967;BME280;17649;51.836;8.330;2023-03-20T11:52:48;101247.22;;;12.86;nan
30967;BME280;17649;51.836;8.330;2023-03-20T11:56:22;101252.69;;;12.81;nan
30967;BME280;17649;51.836;8.330;2023-03-20T11:59:30;101251.50;;;12.71;nan
30967;BME280;17649;51.836;8.330;2023-03-20T12:02:38;101250.66;;;12.71;nan
30967;BME280;17649;51.836;8.330;2023-03-20T12:05:45;101256.81;;;12.37;nan
30967;BME280;17649;51.836;8.330;2023-03-20T12:13:03;101256.44;;;12.27;nan
30967;BME280;17649;51.836;8.330;2023-03-20T12:16:15;101244.91;;;12.48;nan
30967;BME280;17649;51.836;8.330;2023-03-20T12:19:28;101233.88;;;12.45;nan
30967;BME280;17649;51.836;8.330;2023-03-20T12:22:42;101230.88;;;12.52;nan
30967;BME280;17649;51.836;8.330;2023-03-20T12:29:49;101242.88;;;12.87;nan
30967;BME280;17649;51.836;8.330;2023-03-20T12:33:13;101231.28;;;12.45;nan
30967;BME280;17649;51.836;8.330;2023-03-20T12:36:34;101245.63;;;12.99;nan
30967;BME280;17649;51.836;8.330;2023-03-20T12:39:38;101252.81;;;12.63;nan
30967;BME280;17649;51.836;8.330;2023-03-20T12:42:56;101244.25;;;12.45;nan
30967;BME280;17649;51.836;8.330;2023-03-20T12:49:49;101250.75;;;12.20;nan
30967;BME280;17649;51.836;8.330;2023-03-20T13:00:01;101246.47;;;12.02;nan
30967;BME280;17649;51.836;8.330;2023-03-20T13:06:52;101242.47;;;11.79;nan
30967;BME280;17649;51.836;8.330;2023-03-20T13:10:35;101243.66;;;11.55;nan
30967;BME280;17649;51.836;8.330;2023-03-20T13:23:45;101237.69;;;11.53;nan
30967;BME280;17649;51.836;8.330;2023-03-20T13:30:02;101240.78;;;11.61;nan
30967;BME280;17649;51.836;8.330;2023-03-20T13:40:37;101242.69;;;11.92;nan
30967;BME280;17649;51.836;8.330;2023-03-20T13:43:46;101230.56;;;11.92;nan
30967;BME280;17649;51.836;8.330;2023-03-20T13:46:50;101227.06;;;11.93;nan
30967;BME280;17649;51.836;8.330;2023-03-20T13:50:00;101229.66;;;11.93;nan
30967;BME280;17649;51.836;8.330;2023-03-20T13:53:44;101226.72;;;11.65;nan
30967;BME280;17649;51.836;8.330;2023-03-20T13:56:49;101223.75;;;11.73;nan
30967;BME280;17649;51.836;8.330;2023-03-20T14:00:04;101224.81;;;11.69;nan
30967;BME280;17649;51.836;8.330;2023-03-20T14:03:12;101214.50;;;12.02;nan
30967;BME280;17649;51.836;8.330;2023-03-20T14:06:41;101209.28;;;12.52;nan
30967;BME280;17649;51.836;8.330;2023-03-20T14:09:38;101211.25;;;12.47;nan
30967;BME280;17649;51.836;8.330;2023-03-20T14:12:38;101212.44;;;12.41;nan
30967;BME280;17649;51.836;8.330;2023-03-20T14:15:44;101205.22;;;12.31;nan
30967;BME280;17649;51.836;8.330;2023-03-20T14:18:49;101215.81;;;12.10;nan
30967;BME280;17649;51.836;8.330;2023-03-20T14:21:53;101218.66;;;11.88;nan
30967;BME280;17649;51.836;8.330;2023-03-20T14:25:06;101211.41;;;11.78;nan
30967;BME280;17649;51.836;8.330;2023-03-20T14:28:24;101219.25;;;11.76;nan
30967;BME280;17649;51.836;8.330;2023-03-20T14:31:29;101215.97;;;11.73;nan
30967;BME280;17649;51.836;8.330;2023-03-20T14:34:45;101220.38;;;11.71;nan
30967;BME280;17649;51.836;8.330;2023-03-20T14:41:21;101221.75;;;11.60;nan
30967;BME280;17649;51.836;8.330;2023-03-20T14:44:46;101218.63;;;11.19;nan
30967;BME280;17649;51.836;8.330;2023-03-20T14:48:03;101223.72;;;11.21;nan
30967;BME280;17649;51.836;8.330;2023-03-20T14:51:20;101221.97;;;11.21;nan
30967;BME280;17649;51.836;8.330;2023-03-20T14:57:32;101225.41;;;11.39;nan
30967;BME280;17649;51.836;8.330;2023-03-20T15:00:44;101214.91;;;11.59;nan
30967;BME280;17649;51.836;8.330;2023-03-20T15:04:04;101211.47;;;11.42;nan
30967;BME280;17649;51.836;8.330;2023-03-20T15:07:21;101218.16;;;11.28;nan
30967;BME280;17649;51.836;8.330;2023-03-20T15:10:24;101216.41;;;11.29;nan
30967;BME280;17649;51.836;8.330;2023-03-20T15:13:26;101206.44;;;11.39;nan
30967;BME280;17649;51.836;8.330;2023-03-20T15:16:29;101210.31;;;11.30;nan
30967;BME280;17649;51.836;8.330;2023-03-20T15:19:29;101208.44;;;10.97;nan
30967;BME280;17649;51.836;8.330;2023-03-20T15:22:31;101201.69;;;11.12;nan
30967;BME280;17649;51.836;8.330;2023-03-20T15:25:40;101205.88;;;11.15;nan
30967;BME280;17649;51.836;8.330;2023-03-20T15:28:45;101206.59;;;11.18;nan
30967;BME280;17649;51.836;8.330;2023-03-20T15:31:51;101198.56;;;11.23;nan
30967;BME280;17649;51.836;8.330;2023-03-20T15:34:53;101204.38;;;11.28;nan
30967;BME280;17649;51.836;8.330;2023-03-20T15:37:56;101187.78;;;10.96;nan
30967;BME280;17649;51.836;8.330;2023-03-20T15:40:57;101190.16;;;11.00;nan
30967;BME280;17649;51.836;8.330;2023-03-20T15:44:21;101196.13;;;11.02;nan
30967;BME280;17649;51.836;8.330;2023-03-20T15:47:23;101189.69;;;10.92;nan
30967;BME280;17649;51.836;8.330;2023-03-20T15:50:24;101198.09;;;10.79;nan
30967;BME280;17649;51.836;8.330;2023-03-20T15:53:36;101184.66;;;10.89;nan
30967;BME280;17649;51.836;8.330;2023-03-20T15:56:37;101181.81;;;10.77;nan
30967;BME280;17649;51.836;8.330;2023-03-20T15:59:42;101181.31;;;10.87;nan
30967;BME280;17649;51.836;8.330;2023-03-20T16:02:44;101180.31;;;10.90;nan
30967;BME280;17649;51.836;8.330;2023-03-20T16:05:47;101184.25;;;10.80;nan
30967;BME280;17649;51.836;8.330;2023-03-20T16:08:59;101184.50;;;10.92;nan
30967;BME280;17649;51.836;8.330;2023-03-20T16:12:01;101178.66;;;10.89;nan
30967;BME280;17649;51.836;8.330;2023-03-20T16:15:02;101189.69;;;10.92;nan
30967;BME280;17649;51.836;8.330;2023-03-20T16:18:05;101187.94;;;10.93;nan
30967;BME280;17649;51.836;8.330;2023-03-20T16:21:11;101174.19;;;10.55;nan
30967;BME280;17649;51.836;8.330;2023-03-20T16:24:18;101183.91;;;10.50;nan
30967;BME280;17649;51.836;8.330;2023-03-20T16:27:24;101186.06;;;10.40;nan
30967;BME280;17649;51.836;8.330;2023-03-20T16:30:29;101179.00;;;10.25;nan
30967;BME280;17649;51.836;8.330;2023-03-20T16:33:31;101180.16;;;10.18;nan
30967;BME280;17649;51.836;8.330;2023-03-20T16:36:34;101179.16;;;10.01;nan
30967;BME280;17649;51.836;8.330;2023-03-20T16:39:35;101182.47;;;9.84;nan
30967;BME280;17649;51.836;8.330;2023-03-20T16:42:36;101179.78;;;10.06;nan
30967;BME280;17649;51.836;8.330;2023-03-20T16:45:36;101174.59;;;9.88;nan
30967;BME280;17649;51.836;8.330;2023-03-20T16:48:37;101169.63;;;9.83;nan
30967;BME280;17649;51.836;8.330;2023-03-20T16:51:38;101175.19;;;9.74;nan
30967;BME280;17649;51.836;8.330;2023-03-20T16:54:43;101171.44;;;9.61;nan
30967;BME280;17649;51.836;8.330;2023-03-20T16:57:46;101172.97;;;9.65;nan
30967;BME280;17649;51.836;8.330;2023-03-20T17:00:59;101184.09;;;9.67;nan
30967;BME280;17649;51.836;8.330;2023-03-20T17:04:27;101185.41;;;9.56;nan
30967;BME280;17649;51.836;8.330;2023-03-20T17:07:27;101196.13;;;9.68;nan
30967;BME280;17649;51.836;8.330;2023-03-20T17:10:29;101199.34;;;9.52;nan
30967;BME280;17649;51.836;8.330;2023-03-20T17:13:30;101194.84;;;9.36;nan
30967;BME280;17649;51.836;8.330;2023-03-20T17:16:30;101197.06;;;9.24;nan
30967;BME280;17649;51.836;8.330;2023-03-20T17:19:32;101204.44;;;9.54;nan
30967;BME280;17649;51.836;8.330;2023-03-20T17:22:33;101206.50;;;9.46;nan
30967;BME280;17649;51.836;8.330;2023-03-20T17:25:33;101209.47;;;9.15;nan
30967;BME280;17649;51.836;8.330;2023-03-20T17:28:34;101202.03;;;9.29;nan
30967;BME280;17649;51.836;8.330;2023-03-20T17:31:36;101210.81;;;9.25;nan
30967;BME280;17649;51.836;8.330;2023-03-20T17:34:37;101209.34;;;9.40;nan
30967;BME280;17649;51.836;8.330;2023-03-20T17:37:38;101211.03;;;9.41;nan
30967;BME280;17649;51.836;8.330;2023-03-20T17:40:38;101207.47;;;9.43;nan
30967;BME280;17649;51.836;8.330;2023-03-20T17:43:38;101201.97;;;9.31;nan
30967;BME280;17649;51.836;8.330;2023-03-20T17:46:39;101204.44;;;9.54;nan
30967;BME280;17649;51.836;8.330;2023-03-20T17:49:39;101208.44;;;9.41;nan
30967;BME280;17649;51.836;8.330;2023-03-20T17:52:40;101209.84;;;9.48;nan
30967;BME280;17649;51.836;8.330;2023-03-20T17:55:40;101211.94;;;9.40;nan
30967;BME280;17649;51.836;8.330;2023-03-20T17:58:41;101214.88;;;9.31;nan
30967;BME280;17649;51.836;8.330;2023-03-20T18:01:43;101214.75;;;9.34;nan
30967;BME280;17649;51.836;8.330;2023-03-20T18:04:47;101221.22;;;9.22;nan
30967;BME280;17649;51.836;8.330;2023-03-20T18:07:48;101216.13;;;9.20;nan
30967;BME280;17649;51.836;8.330;2023-03-20T18:10:50;101221.41;;;9.17;nan
30967;BME280;17649;51.836;8.330;2023-03-20T18:13:51;101216.75;;;9.27;nan
30967;BME280;17649;51.836;8.330;2023-03-20T18:16:51;101224.44;;;9.29;nan
30967;BME280;17649;51.836;8.330;2023-03-20T18:19:52;101225.31;;;9.27;nan
30967;BME280;17649;51.836;8.330;2023-03-20T18:22:53;101226.34;;;9.23;nan
30967;BME280;17649;51.836;8.330;2023-03-20T18:25:53;101217.31;;;9.34;nan